sensor_id;sensor_type;location;lat;lon;timestamp;pressure;altitude;pressure_sealevel;temperature
64458;BMP280;58438;51.200;7.252;2023-08-07T00:01:32;97351.41;;;11.71
64458;BMP280;58438;51.200;7.252;2023-08-07T00:04:21;97351.41;;;11.71
64458;BMP280;58438;51.200;7.252;2023-08-07T00:07:12;97352.16;;;11.71
64458;BMP280;58438;51.200;7.252;2023-08-07T00:10:02;97355.59;;;11.66
64458;BMP280;58438;51.200;7.252;2023-08-07T00:12:53;97356.84;;;11.65
64458;BMP280;58438;51.200;7.252;2023-08-07T00:15:44;97349.94;;;11.70
64458;BMP280;58438;51.200;7.252;2023-08-07T00:18:34;97358.31;;;11.66
64458;BMP280;58438;51.200;7.252;2023-08-07T00:21:25;97356.34;;;11.67
64458;BMP280;58438;51.200;7.252;2023-08-07T00:24:15;97365.50;;;11.64
64458;BMP280;58438;51.200;7.252;2023-08-07T00:27:05;97366.97;;;11.65
64458;BMP280;58438;51.200;7.252;2023-08-07T00:29:58;97353.34;;;11.65
64458;BMP280;58438;51.200;7.252;2023-08-07T00:32:49;97363.03;;;11.66
64458;BMP280;58438;51.200;7.252;2023-08-07T00:35:40;97364.75;;;11.63
64458;BMP280;58438;51.200;7.252;2023-08-07T00:38:29;97359.81;;;11.62
64458;BMP280;58438;51.200;7.252;2023-08-07T00:41:19;97361.53;;;11.65
64458;BMP280;58438;51.200;7.252;2023-08-07T00:44:09;97366.25;;;11.59
64458;BMP280;58438;51.200;7.252;2023-08-07T00:47:01;97362.28;;;11.60
64458;BMP280;58438;51.200;7.252;2023-08-07T00:49:52;97361.28;;;11.63
64458;BMP280;58438;51.200;7.252;2023-08-07T00:52:42;97365.75;;;11.66
64458;BMP280;58438;51.200;7.252;2023-08-07T00:55:31;97368.47;;;11.66
64458;BMP280;58438;51.200;7.252;2023-08-07T00:58:22;97361.03;;;11.61
64458;BMP280;58438;51.200;7.252;2023-08-07T01:01:12;97366.50;;;11.66
64458;BMP280;58438;51.200;7.252;2023-08-07T01:04:04;97377.13;;;11.59
64458;BMP280;58438;51.200;7.252;2023-08-07T01:06:54;97373.19;;;11.60
64458;BMP280;58438;51.200;7.252;2023-08-07T01:09:44;97370.94;;;11.58
64458;BMP280;58438;51.200;7.252;2023-08-07T01:12:36;97379.59;;;11.57
64458;BMP280;58438;51.200;7.252;2023-08-07T01:15:36;97374.13;;;11.57
64458;BMP280;58438;51.200;7.252;2023-08-07T01:18:25;97381.06;;;11.58
64458;BMP280;58438;51.200;7.252;2023-08-07T01:21:19;97384.81;;;11.55
64458;BMP280;58438;51.200;7.252;2023-08-07T01:24:09;97386.28;;;11.56
64458;BMP280;58438;51.200;7.252;2023-08-07T01:27:00;97386.03;;;11.54
64458;BMP280;58438;51.200;7.252;2023-08-07T01:29:51;97378.53;;;11.49
64458;BMP280;58438;51.200;7.252;2023-08-07T01:32:44;97377.59;;;11.52
64458;BMP280;58438;51.200;7.252;2023-08-07T01:35:34;97387.00;;;11.51
64458;BMP280;58438;51.200;7.252;2023-08-07T01:38:24;97387.75;;;11.51
64458;BMP280;58438;51.200;7.252;2023-08-07T01:41:15;97391.94;;;11.47
64458;BMP280;58438;51.200;7.252;2023-08-07T01:44:03;97386.25;;;11.50
64458;BMP280;58438;51.200;7.252;2023-08-07T01:46:51;97391.50;;;11.54
64458;BMP280;58438;51.200;7.252;2023-08-07T01:49:40;97396.69;;;11.57
64458;BMP280;58438;51.200;7.252;2023-08-07T01:52:27;97398.91;;;11.53
64458;BMP280;58438;51.200;7.252;2023-08-07T01:55:15;97401.38;;;11.51
64458;BMP280;58438;51.200;7.252;2023-08-07T01:58:04;97400.34;;;11.49
64458;BMP280;58438;51.200;7.252;2023-08-07T02:00:52;97401.38;;;11.51
64458;BMP280;58438;51.200;7.252;2023-08-07T02:03:40;97400.63;;;11.51
64458;BMP280;58438;51.200;7.252;2023-08-07T02:06:28;97395.91;;;11.46
64458;BMP280;58438;51.200;7.252;2023-08-07T02:09:15;97397.88;;;11.45
64458;BMP280;58438;51.200;7.252;2023-08-07T02:12:03;97398.88;;;11.48
64458;BMP280;58438;51.200;7.252;2023-08-07T02:14:52;97404.56;;;11.44
64458;BMP280;58438;51.200;7.252;2023-08-07T02:17:41;97401.34;;;11.46
64458;BMP280;58438;51.200;7.252;2023-08-07T02:20:31;97395.66;;;11.44
64458;BMP280;58438;51.200;7.252;2023-08-07T02:23:18;97408.03;;;11.45
64458;BMP280;58438;51.200;7.252;2023-08-07T02:26:06;97412.25;;;11.46
64458;BMP280;58438;51.200;7.252;2023-08-07T02:28:53;97403.06;;;11.43
64458;BMP280;58438;51.200;7.252;2023-08-07T02:31:43;97403.81;;;11.44
64458;BMP280;58438;51.200;7.252;2023-08-07T02:34:31;97401.09;;;11.44
64458;BMP280;58438;51.200;7.252;2023-08-07T02:37:19;97404.53;;;11.39
64458;BMP280;58438;51.200;7.252;2023-08-07T02:40:09;97406.78;;;11.40
64458;BMP280;58438;51.200;7.252;2023-08-07T02:42:57;97398.06;;;11.36
64458;BMP280;58438;51.200;7.252;2023-08-07T02:45:44;97395.81;;;11.35
64458;BMP280;58438;51.200;7.252;2023-08-07T02:48:33;97404.53;;;11.39
64458;BMP280;58438;51.200;7.252;2023-08-07T02:51:21;97401.34;;;11.40
64458;BMP280;58438;51.200;7.252;2023-08-07T02:54:09;97405.00;;;11.37
64458;BMP280;58438;51.200;7.252;2023-08-07T02:56:57;97408.22;;;11.36
64458;BMP280;58438;51.200;7.252;2023-08-07T02:59:44;97402.50;;;11.34
64458;BMP280;58438;51.200;7.252;2023-08-07T03:02:32;97407.94;;;11.34
64458;BMP280;58438;51.200;7.252;2023-08-07T03:05:21;97409.19;;;11.33
64458;BMP280;58438;51.200;7.252;2023-08-07T03:08:08;97411.66;;;11.31
64458;BMP280;58438;51.200;7.252;2023-08-07T03:10:56;97420.34;;;11.35
64458;BMP280;58438;51.200;7.252;2023-08-07T03:13:44;97420.34;;;11.35
64458;BMP280;58438;51.200;7.252;2023-08-07T03:16:31;97415.19;;;11.37
64458;BMP280;58438;51.200;7.252;2023-08-07T03:19:19;97413.16;;;11.32
64458;BMP280;58438;51.200;7.252;2023-08-07T03:22:09;97415.41;;;11.33
64458;BMP280;58438;51.200;7.252;2023-08-07T03:24:58;97415.19;;;11.37
64458;BMP280;58438;51.200;7.252;2023-08-07T03:27:46;97417.69;;;11.40
64458;BMP280;58438;51.200;7.252;2023-08-07T03:30:34;97421.84;;;11.36
64458;BMP280;58438;51.200;7.252;2023-08-07T03:33:21;97419.88;;;11.36
64458;BMP280;58438;51.200;7.252;2023-08-07T03:36:09;97421.84;;;11.36
64458;BMP280;58438;51.200;7.252;2023-08-07T03:38:59;97422.13;;;11.38
64458;BMP280;58438;51.200;7.252;2023-08-07T03:41:47;97416.66;;;11.38
64458;BMP280;58438;51.200;7.252;2023-08-07T03:44:34;97429.75;;;11.34
64458;BMP280;58438;51.200;7.252;2023-08-07T03:47:22;97431.97;;;11.30
64458;BMP280;58438;51.200;7.252;2023-08-07T03:50:09;97442.13;;;11.35
64458;BMP280;58438;51.200;7.252;2023-08-07T03:52:57;97437.22;;;11.33
64458;BMP280;58438;51.200;7.252;2023-08-07T03:55:50;97442.91;;;11.35
64458;BMP280;58438;51.200;7.252;2023-08-07T03:58:38;97436.97;;;11.37
64458;BMP280;58438;51.200;7.252;2023-08-07T04:01:25;97428.75;;;11.31
64458;BMP280;58438;51.200;7.252;2023-08-07T04:04:13;97435.94;;;11.29
64458;BMP280;58438;51.200;7.252;2023-08-07T04:07:00;97430.47;;;11.29
64458;BMP280;58438;51.200;7.252;2023-08-07T04:09:52;97435.16;;;11.28
64458;BMP280;58438;51.200;7.252;2023-08-07T04:12:45;97438.16;;;11.30
64458;BMP280;58438;51.200;7.252;2023-08-07T04:15:32;97437.44;;;11.30
64458;BMP280;58438;51.200;7.252;2023-08-07T04:18:20;97444.38;;;11.31
64458;BMP280;58438;51.200;7.252;2023-08-07T04:21:08;97432.91;;;11.27
64458;BMP280;58438;51.200;7.252;2023-08-07T04:23:58;97431.72;;;11.28
64458;BMP280;58438;51.200;7.252;2023-08-07T04:26:47;97444.34;;;11.25
64458;BMP280;58438;51.200;7.252;2023-08-07T04:29:36;97427.22;;;11.25
64458;BMP280;58438;51.200;7.252;2023-08-07T04:32:24;97445.56;;;11.24
64458;BMP280;58438;51.200;7.252;2023-08-07T04:35:12;97446.53;;;11.27
64458;BMP280;58438;51.200;7.252;2023-08-07T04:38:02;97453.25;;;11.26
64458;BMP280;58438;51.200;7.252;2023-08-07T04:40:50;97455.75;;;11.29
64458;BMP280;58438;51.200;7.252;2023-08-07T04:43:38;97446.81;;;11.29
64458;BMP280;58438;51.200;7.252;2023-08-07T04:46:29;97455.25;;;11.25
64458;BMP280;58438;51.200;7.252;2023-08-07T04:49:16;97459.97;;;11.30
64458;BMP280;58438;51.200;7.252;2023-08-07T04:52:05;97457.72;;;11.29
64458;BMP280;58438;51.200;7.252;2023-08-07T04:55:08;97455.28;;;11.31
64458;BMP280;58438;51.200;7.252;2023-08-07T04:57:55;97470.09;;;11.24
64458;BMP280;58438;51.200;7.252;2023-08-07T05:00:43;97465.13;;;11.23
64458;BMP280;58438;51.200;7.252;2023-08-07T05:03:35;97459.66;;;11.23
64458;BMP280;58438;51.200;7.252;2023-08-07T05:06:23;97461.63;;;11.22
64458;BMP280;58438;51.200;7.252;2023-08-07T05:09:11;97457.22;;;11.25
64458;BMP280;58438;51.200;7.252;2023-08-07T05:11:59;97462.66;;;11.25
64458;BMP280;58438;51.200;7.252;2023-08-07T05:14:47;97469.34;;;11.24
64458;BMP280;58438;51.200;7.252;2023-08-07T05:17:35;97464.56;;;11.19
64458;BMP280;58438;51.200;7.252;2023-08-07T05:20:24;97462.84;;;11.21
64458;BMP280;58438;51.200;7.252;2023-08-07T05:23:12;97461.59;;;11.17
64458;BMP280;58438;51.200;7.252;2023-08-07T05:25:59;97463.34;;;11.20
64458;BMP280;58438;51.200;7.252;2023-08-07T05:28:47;97478.47;;;11.21
64458;BMP280;58438;51.200;7.252;2023-08-07T05:31:35;97470.81;;;11.25
64458;BMP280;58438;51.200;7.252;2023-08-07T05:34:23;97472.06;;;11.24
64458;BMP280;58438;51.200;7.252;2023-08-07T05:37:13;97472.81;;;11.24
64458;BMP280;58438;51.200;7.252;2023-08-07T05:40:00;97465.63;;;11.27
64458;BMP280;58438;51.200;7.252;2023-08-07T05:42:47;97470.81;;;11.25
64458;BMP280;58438;51.200;7.252;2023-08-07T05:45:35;97462.66;;;11.25
64458;BMP280;58438;51.200;7.252;2023-08-07T05:48:23;97469.34;;;11.24
64458;BMP280;58438;51.200;7.252;2023-08-07T05:51:10;97472.53;;;11.22
64458;BMP280;58438;51.200;7.252;2023-08-07T05:54:00;97469.06;;;11.22
64458;BMP280;58438;51.200;7.252;2023-08-07T05:56:48;97470.56;;;11.23
64458;BMP280;58438;51.200;7.252;2023-08-07T05:59:36;97461.16;;;11.24
64458;BMP280;58438;51.200;7.252;2023-08-07T06:02:26;97467.13;;;11.28
64458;BMP280;58438;51.200;7.252;2023-08-07T06:05:14;97465.16;;;11.34
64458;BMP280;58438;51.200;7.252;2023-08-07T06:08:02;97471.38;;;11.34
64458;BMP280;58438;51.200;7.252;2023-08-07T06:10:51;97479.25;;;11.27
64458;BMP280;58438;51.200;7.252;2023-08-07T06:13:39;97480.00;;;11.27
64458;BMP280;58438;51.200;7.252;2023-08-07T06:16:27;97482.53;;;11.31
64458;BMP280;58438;51.200;7.252;2023-08-07T06:19:15;97487.94;;;11.25
64458;BMP280;58438;51.200;7.252;2023-08-07T06:22:15;97499.06;;;11.27
64458;BMP280;58438;51.200;7.252;2023-08-07T06:25:03;97483.25;;;11.31
64458;BMP280;58438;51.200;7.252;2023-08-07T06:27:54;97488.47;;;11.35
64458;BMP280;58438;51.200;7.252;2023-08-07T06:30:42;97500.84;;;11.30
64458;BMP280;58438;51.200;7.252;2023-08-07T06:33:30;97500.38;;;11.32
64458;BMP280;58438;51.200;7.252;2023-08-07T06:36:23;97513.19;;;11.26
64458;BMP280;58438;51.200;7.252;2023-08-07T06:39:11;97503.28;;;11.28
64458;BMP280;58438;51.200;7.252;2023-08-07T06:41:58;97512.69;;;11.27
64458;BMP280;58438;51.200;7.252;2023-08-07T06:44:48;97512.47;;;11.25
64458;BMP280;58438;51.200;7.252;2023-08-07T06:47:35;97518.16;;;11.27
64458;BMP280;58438;51.200;7.252;2023-08-07T06:50:23;97510.75;;;11.28
64458;BMP280;58438;51.200;7.252;2023-08-07T06:53:11;97511.00;;;11.30
64458;BMP280;58438;51.200;7.252;2023-08-07T06:55:59;97526.31;;;11.27
64458;BMP280;58438;51.200;7.252;2023-08-07T06:58:48;97526.84;;;11.31
64458;BMP280;58438;51.200;7.252;2023-08-07T07:01:37;97524.63;;;11.30
64458;BMP280;58438;51.200;7.252;2023-08-07T07:04:26;97526.13;;;11.31
64458;BMP280;58438;51.200;7.252;2023-08-07T07:07:14;97537.06;;;11.36
64458;BMP280;58438;51.200;7.252;2023-08-07T07:10:02;97533.06;;;11.32
64458;BMP280;58438;51.200;7.252;2023-08-07T07:12:49;97541.47;;;11.34
64458;BMP280;58438;51.200;7.252;2023-08-07T07:15:38;97537.06;;;11.36
64458;BMP280;58438;51.200;7.252;2023-08-07T07:18:28;97550.50;;;11.40
64458;BMP280;58438;51.200;7.252;2023-08-07T07:21:15;97554.22;;;11.42
64458;BMP280;58438;51.200;7.252;2023-08-07T07:24:04;97551.94;;;11.41
64458;BMP280;58438;51.200;7.252;2023-08-07T07:26:52;97546.28;;;11.44
64458;BMP280;58438;51.200;7.252;2023-08-07T07:29:40;97560.69;;;11.45
64458;BMP280;58438;51.200;7.252;2023-08-07T07:32:28;97560.41;;;11.43
64458;BMP280;58438;51.200;7.252;2023-08-07T07:35:17;97570.13;;;11.49
64458;BMP280;58438;51.200;7.252;2023-08-07T07:38:04;97576.09;;;11.48
64458;BMP280;58438;51.200;7.252;2023-08-07T07:40:52;97576.56;;;11.46
64458;BMP280;58438;51.200;7.252;2023-08-07T07:43:42;97570.84;;;11.44
64458;BMP280;58438;51.200;7.252;2023-08-07T07:46:30;97587.75;;;11.48
64458;BMP280;58438;51.200;7.252;2023-08-07T07:49:18;97592.44;;;11.48
64458;BMP280;58438;51.200;7.252;2023-08-07T07:52:08;97592.44;;;11.48
64458;BMP280;58438;51.200;7.252;2023-08-07T07:54:56;97585.72;;;11.49
64458;BMP280;58438;51.200;7.252;2023-08-07T07:57:46;97602.38;;;11.51
64458;BMP280;58438;51.200;7.252;2023-08-07T08:00:34;97596.44;;;11.52
64458;BMP280;58438;51.200;7.252;2023-08-07T08:03:23;97598.94;;;11.56
64458;BMP280;58438;51.200;7.252;2023-08-07T08:06:11;97599.69;;;11.56
64458;BMP280;58438;51.200;7.252;2023-08-07T08:09:00;97601.41;;;11.54
64458;BMP280;58438;51.200;7.252;2023-08-07T08:11:50;97614.06;;;11.57
64458;BMP280;58438;51.200;7.252;2023-08-07T08:14:38;97620.28;;;11.57
64458;BMP280;58438;51.200;7.252;2023-08-07T08:17:40;97625.78;;;11.63
64458;BMP280;58438;51.200;7.252;2023-08-07T08:20:28;97629.25;;;11.63
64458;BMP280;58438;51.200;7.252;2023-08-07T08:23:17;97620.88;;;11.67
64458;BMP280;58438;51.200;7.252;2023-08-07T08:26:08;97621.56;;;11.62
64458;BMP280;58438;51.200;7.252;2023-08-07T08:28:56;97621.59;;;11.67
64458;BMP280;58438;51.200;7.252;2023-08-07T08:31:43;97642.38;;;11.65
64458;BMP280;58438;51.200;7.252;2023-08-07T08:34:30;97641.91;;;11.66
64458;BMP280;58438;51.200;7.252;2023-08-07T08:37:18;97645.41;;;11.67
64458;BMP280;58438;51.200;7.252;2023-08-07T08:40:07;97653.78;;;11.63
64458;BMP280;58438;51.200;7.252;2023-08-07T08:42:59;97649.06;;;11.64
64458;BMP280;58438;51.200;7.252;2023-08-07T08:45:48;97661.78;;;11.67
64458;BMP280;58438;51.200;7.252;2023-08-07T08:48:35;97663.47;;;11.64
64458;BMP280;58438;51.200;7.252;2023-08-07T08:51:24;97672.44;;;11.70
64458;BMP280;58438;51.200;7.252;2023-08-07T08:54:12;97674.69;;;11.72
64458;BMP280;58438;51.200;7.252;2023-08-07T08:57:01;97678.22;;;11.78
64458;BMP280;58438;51.200;7.252;2023-08-07T08:59:50;97679.97;;;11.81
64458;BMP280;58438;51.200;7.252;2023-08-07T09:02:38;97687.22;;;11.84
64458;BMP280;58438;51.200;7.252;2023-08-07T09:05:26;97691.19;;;11.83
64458;BMP280;58438;51.200;7.252;2023-08-07T09:08:14;97703.09;;;11.85
64458;BMP280;58438;51.200;7.252;2023-08-07T09:11:03;97702.59;;;11.87
64458;BMP280;58438;51.200;7.252;2023-08-07T09:13:53;97705.31;;;11.87
64458;BMP280;58438;51.200;7.252;2023-08-07T09:16:47;97707.13;;;11.90
64458;BMP280;58438;51.200;7.252;2023-08-07T09:19:35;97715.53;;;11.92
64458;BMP280;58438;51.200;7.252;2023-08-07T09:22:23;97712.06;;;11.91
64458;BMP280;58438;51.200;7.252;2023-08-07T09:25:10;97716.28;;;11.92
64458;BMP280;58438;51.200;7.252;2023-08-07T09:28:00;97721.25;;;11.94
64458;BMP280;58438;51.200;7.252;2023-08-07T09:30:51;97726.00;;;11.93
64458;BMP280;58438;51.200;7.252;2023-08-07T09:36:28;97726.28;;;12.01
64458;BMP280;58438;51.200;7.252;2023-08-07T09:39:17;97740.19;;;12.03
64458;BMP280;58438;51.200;7.252;2023-08-07T09:42:12;97733.28;;;12.07
64458;BMP280;58438;51.200;7.252;2023-08-07T09:45:00;97736.34;;;12.15
64458;BMP280;58438;51.200;7.252;2023-08-07T09:58:59;97734.97;;;12.30
64458;BMP280;58438;51.200;7.252;2023-08-07T10:01:47;97751.34;;;12.30
64458;BMP280;58438;51.200;7.252;2023-08-07T10:04:39;97739.44;;;12.28
64458;BMP280;58438;51.200;7.252;2023-08-07T10:07:27;97751.84;;;12.29
64458;BMP280;58438;51.200;7.252;2023-08-07T10:10:15;97736.97;;;12.30
64458;BMP280;58438;51.200;7.252;2023-08-07T10:13:03;97754.25;;;12.21
64458;BMP280;58438;51.200;7.252;2023-08-07T10:15:53;97759.72;;;12.21
64458;BMP280;58438;51.200;7.252;2023-08-07T10:18:40;97765.50;;;12.29
64458;BMP280;58438;51.200;7.252;2023-08-07T10:21:28;97769.72;;;12.30
64458;BMP280;58438;51.200;7.252;2023-08-07T10:24:16;97768.78;;;12.38
64458;BMP280;58438;51.200;7.252;2023-08-07T10:38:15;97782.28;;;12.83
64458;BMP280;58438;51.200;7.252;2023-08-07T10:41:06;97776.34;;;12.85
64458;BMP280;58438;51.200;7.252;2023-08-07T10:43:53;97781.09;;;12.95
64458;BMP280;58438;51.200;7.252;2023-08-07T11:03:28;97791.22;;;13.37
64458;BMP280;58438;51.200;7.252;2023-08-07T11:09:03;97776.84;;;13.42
64458;BMP280;58438;51.200;7.252;2023-08-07T11:11:52;97787.78;;;13.36
64458;BMP280;58438;51.200;7.252;2023-08-07T11:14:40;97784.78;;;13.34
64458;BMP280;58438;51.200;7.252;2023-08-07T11:17:28;97782.53;;;13.38
64458;BMP280;58438;51.200;7.252;2023-08-07T11:20:18;97784.56;;;13.43
64458;BMP280;58438;51.200;7.252;2023-08-07T11:42:39;97793.31;;;13.53
